sensor_id;sensor_type;location;lat;lon;timestamp;pressure;altitude;pressure_sealevel;temperature;humidity
55590;BME280;41452;42.780;23.116;2023-05-23T00:02:03;94241.91;;;11.41;100.00
55590;BME280;41452;42.780;23.116;2023-05-23T00:04:32;94239.22;;;11.24;100.00
55590;BME280;41452;42.780;23.116;2023-05-23T00:06:57;94241.31;;;11.22;100.00
55590;BME280;41452;42.780;23.116;2023-05-23T00:09:23;94235.59;;;11.25;100.00
55590;BME280;41452;42.780;23.116;2023-05-23T00:11:48;94238.91;;;11.20;100.00
55590;BME280;41452;42.780;23.116;2023-05-23T00:14:14;94241.78;;;11.19;100.00
55590;BME280;41452;42.780;23.116;2023-05-23T00:16:40;94238.03;;;11.15;100.00
55590;BME280;41452;42.780;23.116;2023-05-23T00:19:07;94237.00;;;11.16;100.00
55590;BME280;41452;42.780;23.116;2023-05-23T00:21:32;94243.19;;;11.10;100.00
55590;BME280;41452;42.780;23.116;2023-05-23T00:23:58;94249.41;;;11.03;100.00
55590;BME280;41452;42.780;23.116;2023-05-23T00:26:23;94194.47;;;10.73;100.00
55590;BME280;41452;42.780;23.116;2023-05-23T00:28:49;94241.13;;;11.12;100.00
55590;BME280;41452;42.780;23.116;2023-05-23T00:31:14;94237.34;;;11.19;100.00
55590;BME280;41452;42.780;23.116;2023-05-23T00:33:39;94239.41;;;11.17;100.00
55590;BME280;41452;42.780;23.116;2023-05-23T00:36:05;94245.81;;;11.10;100.00
55590;BME280;41452;42.780;23.116;2023-05-23T00:38:30;94244.59;;;11.00;100.00
55590;BME280;41452;42.780;23.116;2023-05-23T00:40:56;94240.13;;;11.01;100.00
55590;BME280;41452;42.780;23.116;2023-05-23T00:43:21;94227.22;;;10.99;100.00
55590;BME280;41452;42.780;23.116;2023-05-23T00:45:47;94242.63;;;11.08;100.00
55590;BME280;41452;42.780;23.116;2023-05-23T00:48:13;94244.03;;;10.98;100.00
55590;BME280;41452;42.780;23.116;2023-05-23T00:50:39;94243.25;;;10.98;100.00
55590;BME280;41452;42.780;23.116;2023-05-23T00:53:05;94229.38;;;10.86;100.00
55590;BME280;41452;42.780;23.116;2023-05-23T00:55:30;94235.19;;;10.88;100.00
55590;BME280;41452;42.780;23.116;2023-05-23T00:57:56;94235.41;;;10.86;100.00
55590;BME280;41452;42.780;23.116;2023-05-23T01:00:24;94241.22;;;10.88;100.00
55590;BME280;41452;42.780;23.116;2023-05-23T01:02:50;94216.72;;;10.71;100.00
55590;BME280;41452;42.780;23.116;2023-05-23T01:05:16;94240.44;;;10.88;100.00
55590;BME280;41452;42.780;23.116;2023-05-23T01:07:43;94235.41;;;10.86;100.00
55590;BME280;41452;42.780;23.116;2023-05-23T01:10:09;94211.38;;;10.65;100.00
55590;BME280;41452;42.780;23.116;2023-05-23T01:15:13;94224.16;;;10.74;100.00
55590;BME280;41452;42.780;23.116;2023-05-23T01:17:58;94242.50;;;10.86;100.00
55590;BME280;41452;42.780;23.116;2023-05-23T01:20:46;94244.69;;;10.77;100.00
55590;BME280;41452;42.780;23.116;2023-05-23T01:32:06;94231.88;;;10.52;100.00
55590;BME280;41452;42.780;23.116;2023-05-23T01:34:35;94208.72;;;10.37;100.00
55590;BME280;41452;42.780;23.116;2023-05-23T01:37:07;94221.00;;;10.48;100.00
55590;BME280;41452;42.780;23.116;2023-05-23T01:39:34;94173.13;;;10.17;100.00
55590;BME280;41452;42.780;23.116;2023-05-23T01:41:59;94215.69;;;10.43;100.00
55590;BME280;41452;42.780;23.116;2023-05-23T01:44:25;94220.34;;;10.41;100.00
55590;BME280;41452;42.780;23.116;2023-05-23T01:46:50;94214.63;;;10.44;100.00
55590;BME280;41452;42.780;23.116;2023-05-23T01:49:17;94218.25;;;10.55;100.00
55590;BME280;41452;42.780;23.116;2023-05-23T01:51:43;94218.50;;;10.53;100.00
55590;BME280;41452;42.780;23.116;2023-05-23T01:54:10;94215.56;;;10.38;100.00
55590;BME280;41452;42.780;23.116;2023-05-23T01:56:36;94192.53;;;10.16;100.00
55590;BME280;41452;42.780;23.116;2023-05-23T01:59:02;94217.03;;;10.45;100.00
55590;BME280;41452;42.780;23.116;2023-05-23T02:01:28;94216.69;;;10.42;100.00
55590;BME280;41452;42.780;23.116;2023-05-23T02:03:53;94214.31;;;10.40;100.00
55590;BME280;41452;42.780;23.116;2023-05-23T02:06:19;94213.50;;;10.40;100.00
55590;BME280;41452;42.780;23.116;2023-05-23T02:08:45;94201.09;;;10.23;100.00
55590;BME280;41452;42.780;23.116;2023-05-23T02:11:10;94219.66;;;10.34;100.00
55590;BME280;41452;42.780;23.116;2023-05-23T02:13:35;94210.09;;;10.27;100.00
55590;BME280;41452;42.780;23.116;2023-05-23T02:16:01;94202.09;;;10.11;100.00
55590;BME280;41452;42.780;23.116;2023-05-23T02:18:26;94215.78;;;10.24;100.00
55590;BME280;41452;42.780;23.116;2023-05-23T02:20:53;94223.09;;;10.22;100.00
55590;BME280;41452;42.780;23.116;2023-05-23T02:23:20;94218.97;;;10.26;100.00
55590;BME280;41452;42.780;23.116;2023-05-23T02:25:45;94212.03;;;10.20;100.00
55590;BME280;41452;42.780;23.116;2023-05-23T02:28:11;94224.09;;;10.21;100.00
55590;BME280;41452;42.780;23.116;2023-05-23T02:30:37;94224.03;;;10.16;100.00
55590;BME280;41452;42.780;23.116;2023-05-23T02:33:06;94219.47;;;10.12;100.00
55590;BME280;41452;42.780;23.116;2023-05-23T02:59:58;94170.19;;;10.02;98.79
55590;BME280;41452;42.780;23.116;2023-05-23T03:02:24;94225.38;;;10.31;98.87
55590;BME280;41452;42.780;23.116;2023-05-23T03:04:49;94225.03;;;10.27;98.04
55590;BME280;41452;42.780;23.116;2023-05-23T03:07:15;94222.41;;;10.15;98.25
55590;BME280;41452;42.780;23.116;2023-05-23T03:09:40;94167.94;;;9.70;97.80
55590;BME280;41452;42.780;23.116;2023-05-23T03:12:06;94218.09;;;9.85;98.43
55590;BME280;41452;42.780;23.116;2023-05-23T03:14:31;94197.22;;;9.55;99.64
55590;BME280;41452;42.780;23.116;2023-05-23T03:16:57;94226.50;;;9.52;100.00
55590;BME280;41452;42.780;23.116;2023-05-23T03:19:22;94208.72;;;9.42;100.00
55590;BME280;41452;42.780;23.116;2023-05-23T03:21:48;94222.63;;;9.43;100.00
55590;BME280;41452;42.780;23.116;2023-05-23T03:24:15;94233.09;;;9.43;100.00
55590;BME280;41452;42.780;23.116;2023-05-23T03:26:40;94225.50;;;9.53;100.00
55590;BME280;41452;42.780;23.116;2023-05-23T03:29:05;94235.19;;;9.52;100.00
55590;BME280;41452;42.780;23.116;2023-05-23T03:31:31;94170.84;;;9.14;100.00
55590;BME280;41452;42.780;23.116;2023-05-23T03:33:56;94239.75;;;9.57;100.00
55590;BME280;41452;42.780;23.116;2023-05-23T03:36:22;94246.81;;;9.57;100.00
55590;BME280;41452;42.780;23.116;2023-05-23T03:38:51;94247.25;;;9.54;100.00
55590;BME280;41452;42.780;23.116;2023-05-23T03:41:17;94216.13;;;9.33;100.00
55590;BME280;41452;42.780;23.116;2023-05-23T03:43:42;94224.09;;;9.39;100.00
55590;BME280;41452;42.780;23.116;2023-05-23T03:46:08;94247.13;;;9.37;100.00
55590;BME280;41452;42.780;23.116;2023-05-23T03:48:33;94253.00;;;9.20;100.00
55590;BME280;41452;42.780;23.116;2023-05-23T03:50:59;94234.63;;;9.08;100.00
55590;BME280;41452;42.780;23.116;2023-05-23T03:53:24;94248.56;;;9.21;100.00
55590;BME280;41452;42.780;23.116;2023-05-23T03:55:50;94246.94;;;9.20;100.00
55590;BME280;41452;42.780;23.116;2023-05-23T03:58:18;94245.94;;;9.21;100.00
55590;BME280;41452;42.780;23.116;2023-05-23T04:00:43;94245.97;;;9.32;100.00
55590;BME280;41452;42.780;23.116;2023-05-23T04:03:09;94223.50;;;9.25;100.00
55590;BME280;41452;42.780;23.116;2023-05-23T04:05:35;94244.41;;;9.55;100.00
55590;BME280;41452;42.780;23.116;2023-05-23T04:08:00;94242.47;;;9.62;100.00
55590;BME280;41452;42.780;23.116;2023-05-23T04:10:26;94178.50;;;9.28;100.00
55590;BME280;41452;42.780;23.116;2023-05-23T04:12:51;94243.19;;;9.81;100.00
55590;BME280;41452;42.780;23.116;2023-05-23T04:15:17;94241.94;;;9.96;100.00
55590;BME280;41452;42.780;23.116;2023-05-23T04:17:45;94240.00;;;10.03;100.00
55590;BME280;41452;42.780;23.116;2023-05-23T04:20:11;94250.16;;;9.99;100.00
55590;BME280;41452;42.780;23.116;2023-05-23T04:22:37;94163.38;;;9.54;100.00
55590;BME280;41452;42.780;23.116;2023-05-23T04:37:17;94224.28;;;10.67;100.00
55590;BME280;41452;42.780;23.116;2023-05-23T04:39:47;94237.84;;;10.76;100.00
55590;BME280;41452;42.780;23.116;2023-05-23T04:42:12;94249.78;;;10.83;100.00
55590;BME280;41452;42.780;23.116;2023-05-23T04:56:08;94250.03;;;11.56;100.00
55590;BME280;41452;42.780;23.116;2023-05-23T04:58:33;94250.56;;;11.41;100.00
55590;BME280;41452;42.780;23.116;2023-05-23T05:00:59;94242.59;;;11.36;100.00
55590;BME280;41452;42.780;23.116;2023-05-23T05:03:24;94244.22;;;11.37;100.00
55590;BME280;41452;42.780;23.116;2023-05-23T05:05:50;94254.91;;;11.19;100.00
55590;BME280;41452;42.780;23.116;2023-05-23T05:08:16;94247.84;;;11.19;100.00
55590;BME280;41452;42.780;23.116;2023-05-23T05:10:44;94243.16;;;11.21;100.00
55590;BME280;41452;42.780;23.116;2023-05-23T05:13:09;94170.00;;;10.73;100.00
55590;BME280;41452;42.780;23.116;2023-05-23T05:15:35;94240.84;;;11.25;100.00
55590;BME280;41452;42.780;23.116;2023-05-23T05:18:00;94236.13;;;11.27;100.00
55590;BME280;41452;42.780;23.116;2023-05-23T05:20:25;94203.34;;;11.01;100.00
55590;BME280;41452;42.780;23.116;2023-05-23T05:22:55;94260.75;;;11.21;100.00
55590;BME280;41452;42.780;23.116;2023-05-23T05:25:22;94231.56;;;11.06;100.00
55590;BME280;41452;42.780;23.116;2023-05-23T05:27:47;94215.06;;;10.93;100.00
55590;BME280;41452;42.780;23.116;2023-05-23T05:30:12;94251.06;;;11.10;100.00
55590;BME280;41452;42.780;23.116;2023-05-23T05:32:38;94262.00;;;11.18;100.00
55590;BME280;41452;42.780;23.116;2023-05-23T05:35:04;94252.44;;;11.12;100.00
55590;BME280;41452;42.780;23.116;2023-05-23T05:37:29;94267.72;;;11.15;100.00
55590;BME280;41452;42.780;23.116;2023-05-23T05:39:55;94267.03;;;11.20;100.00
55590;BME280;41452;42.780;23.116;2023-05-23T05:42:21;94266.34;;;11.25;100.00
55590;BME280;41452;42.780;23.116;2023-05-23T05:44:47;94266.56;;;11.23;100.00
55590;BME280;41452;42.780;23.116;2023-05-23T05:47:13;94262.19;;;11.29;100.00
55590;BME280;41452;42.780;23.116;2023-05-23T05:49:38;94263.06;;;11.34;100.00
55590;BME280;41452;42.780;23.116;2023-05-23T05:52:05;94264.19;;;11.38;100.00
55590;BME280;41452;42.780;23.116;2023-05-23T05:54:31;94237.97;;;11.27;100.00
55590;BME280;41452;42.780;23.116;2023-05-23T05:56:56;94270.81;;;11.41;100.00
55590;BME280;41452;42.780;23.116;2023-05-23T05:59:21;94279.22;;;11.26;100.00
55590;BME280;41452;42.780;23.116;2023-05-23T06:01:47;94252.19;;;11.14;100.00
55590;BME280;41452;42.780;23.116;2023-05-23T06:04:15;94078.94;;;10.04;100.00
55590;BME280;41452;42.780;23.116;2023-05-23T06:06:41;94215.59;;;10.95;100.00
55590;BME280;41452;42.780;23.116;2023-05-23T06:09:06;94279.66;;;11.35;100.00
55590;BME280;41452;42.780;23.116;2023-05-23T06:11:31;94284.56;;;11.31;100.00
55590;BME280;41452;42.780;23.116;2023-05-23T06:13:57;94285.47;;;11.37;100.00
55590;BME280;41452;42.780;23.116;2023-05-23T06:16:22;94279.66;;;11.06;100.00
55590;BME280;41452;42.780;23.116;2023-05-23T06:18:47;94288.47;;;11.29;100.00
55590;BME280;41452;42.780;23.116;2023-05-23T06:21:13;94195.72;;;10.71;100.00
55590;BME280;41452;42.780;23.116;2023-05-23T06:23:38;94279.03;;;11.45;100.00
55590;BME280;41452;42.780;23.116;2023-05-23T06:26:04;94276.25;;;11.51;100.00
55590;BME280;41452;42.780;23.116;2023-05-23T06:28:32;94278.94;;;11.56;100.00
55590;BME280;41452;42.780;23.116;2023-05-23T06:30:57;94278.94;;;11.56;100.00
55590;BME280;41452;42.780;23.116;2023-05-23T06:33:23;94277.56;;;11.66;100.00
55590;BME280;41452;42.780;23.116;2023-05-23T06:35:48;94278.19;;;11.73;100.00
55590;BME280;41452;42.780;23.116;2023-05-23T06:40:54;94272.34;;;11.54;100.00
55590;BME280;41452;42.780;23.116;2023-05-23T06:43:19;94243.66;;;11.52;100.00
55590;BME280;41452;42.780;23.116;2023-05-23T06:45:45;94271.47;;;11.65;100.00
55590;BME280;41452;42.780;23.116;2023-05-23T06:48:11;94273.09;;;11.66;100.00
55590;BME280;41452;42.780;23.116;2023-05-23T06:50:37;94271.72;;;11.80;100.00
55590;BME280;41452;42.780;23.116;2023-05-23T06:53:03;94263.84;;;11.80;100.00
55590;BME280;41452;42.780;23.116;2023-05-23T06:55:28;94253.31;;;11.80;100.00
55590;BME280;41452;42.780;23.116;2023-05-23T06:57:54;94251.22;;;11.83;100.00
55590;BME280;41452;42.780;23.116;2023-05-23T07:00:20;94263.28;;;12.12;100.00
55590;BME280;41452;42.780;23.116;2023-05-23T07:02:46;94254.09;;;12.15;100.00
55590;BME280;41452;42.780;23.116;2023-05-23T07:05:15;94249.78;;;12.26;100.00
55590;BME280;41452;42.780;23.116;2023-05-23T07:07:41;94259.31;;;12.49;100.00
55590;BME280;41452;42.780;23.116;2023-05-23T07:10:07;94252.53;;;12.36;100.00
55590;BME280;41452;42.780;23.116;2023-05-23T07:12:32;94256.94;;;12.69;100.00
55590;BME280;41452;42.780;23.116;2023-05-23T07:14:58;94188.44;;;12.47;100.00
55590;BME280;41452;42.780;23.116;2023-05-23T07:17:23;94209.88;;;12.78;100.00
55590;BME280;41452;42.780;23.116;2023-05-23T07:19:49;94241.31;;;13.12;100.00
55590;BME280;41452;42.780;23.116;2023-05-23T07:22:14;94241.88;;;13.36;100.00
55590;BME280;41452;42.780;23.116;2023-05-23T07:24:39;94246.03;;;13.59;100.00
55590;BME280;41452;42.780;23.116;2023-05-23T07:27:05;94242.47;;;13.76;100.00
55590;BME280;41452;42.780;23.116;2023-05-23T07:29:31;94233.28;;;13.83;100.00
55590;BME280;41452;42.780;23.116;2023-05-23T07:31:57;94223.69;;;13.72;100.00
55590;BME280;41452;42.780;23.116;2023-05-23T07:34:23;94236.53;;;13.96;100.00
55590;BME280;41452;42.780;23.116;2023-05-23T07:36:49;94222.38;;;13.75;100.00
55590;BME280;41452;42.780;23.116;2023-05-23T07:39:14;94236.34;;;14.07;100.00
55590;BME280;41452;42.780;23.116;2023-05-23T07:41:39;94228.50;;;14.23;100.00
55590;BME280;41452;42.780;23.116;2023-05-23T07:44:05;94233.22;;;14.16;100.00
55590;BME280;41452;42.780;23.116;2023-05-23T07:46:31;94235.59;;;14.17;100.00
55590;BME280;41452;42.780;23.116;2023-05-23T07:48:56;94238.09;;;13.92;100.00
55590;BME280;41452;42.780;23.116;2023-05-23T07:51:22;94237.50;;;14.22;100.00
55590;BME280;41452;42.780;23.116;2023-05-23T07:53:47;94234.53;;;14.13;100.00
55590;BME280;41452;42.780;23.116;2023-05-23T07:56:12;94236.03;;;14.41;100.00
55590;BME280;41452;42.780;23.116;2023-05-23T07:58:38;94237.63;;;14.48;100.00
55590;BME280;41452;42.780;23.116;2023-05-23T08:01:03;94219.22;;;14.63;100.00
55590;BME280;41452;42.780;23.116;2023-05-23T08:03:29;94204.75;;;14.76;100.00
55590;BME280;41452;42.780;23.116;2023-05-23T08:05:55;94215.06;;;14.82;100.00
55590;BME280;41452;42.780;23.116;2023-05-23T08:08:20;94198.47;;;14.92;100.00
55590;BME280;41452;42.780;23.116;2023-05-23T08:10:46;94197.94;;;15.06;100.00
55590;BME280;41452;42.780;23.116;2023-05-23T08:13:11;94220.25;;;15.46;100.00
55590;BME280;41452;42.780;23.116;2023-05-23T08:15:37;94223.97;;;15.60;100.00
55590;BME280;41452;42.780;23.116;2023-05-23T08:18:03;94215.50;;;15.78;100.00
55590;BME280;41452;42.780;23.116;2023-05-23T08:20:29;94220.00;;;15.93;100.00
55590;BME280;41452;42.780;23.116;2023-05-23T08:23:01;94227.41;;;16.07;100.00
55590;BME280;41452;42.780;23.116;2023-05-23T08:25:27;94220.75;;;16.20;100.00
55590;BME280;41452;42.780;23.116;2023-05-23T08:27:55;94215.69;;;16.33;100.00
55590;BME280;41452;42.780;23.116;2023-05-23T08:30:22;94227.84;;;16.40;100.00
55590;BME280;41452;42.780;23.116;2023-05-23T08:32:47;94230.97;;;16.67;100.00
55590;BME280;41452;42.780;23.116;2023-05-23T08:35:13;94219.03;;;16.70;100.00
55590;BME280;41452;42.780;23.116;2023-05-23T08:37:38;94229.59;;;16.75;100.00
55590;BME280;41452;42.780;23.116;2023-05-23T08:40:06;94199.69;;;16.59;100.00
55590;BME280;41452;42.780;23.116;2023-05-23T08:42:32;94221.47;;;16.61;100.00
55590;BME280;41452;42.780;23.116;2023-05-23T08:44:58;94225.63;;;16.78;100.00
55590;BME280;41452;42.780;23.116;2023-05-23T08:47:23;94222.94;;;16.93;100.00
55590;BME280;41452;42.780;23.116;2023-05-23T08:49:51;94225.00;;;17.06;100.00
55590;BME280;41452;42.780;23.116;2023-05-23T08:52:20;94201.34;;;17.10;100.00
55590;BME280;41452;42.780;23.116;2023-05-23T08:54:49;94200.72;;;17.28;100.00
55590;BME280;41452;42.780;23.116;2023-05-23T08:57:15;94209.66;;;17.43;100.00
55590;BME280;41452;42.780;23.116;2023-05-23T08:59:41;94194.78;;;17.42;100.00
55590;BME280;41452;42.780;23.116;2023-05-23T09:02:09;94212.34;;;17.72;100.00
55590;BME280;41452;42.780;23.116;2023-05-23T09:04:36;94216.38;;;17.70;100.00
55590;BME280;41452;42.780;23.116;2023-05-23T09:07:01;94185.22;;;17.41;98.13
55590;BME280;41452;42.780;23.116;2023-05-23T09:09:27;94203.81;;;17.80;96.05
55590;BME280;41452;42.780;23.116;2023-05-23T09:11:54;94203.22;;;17.89;99.58
55590;BME280;41452;42.780;23.116;2023-05-23T09:14:20;94202.31;;;18.03;94.44
55590;BME280;41452;42.780;23.116;2023-05-23T09:16:46;94206.25;;;18.06;95.05
55590;BME280;41452;42.780;23.116;2023-05-23T09:19:14;94187.97;;;17.99;94.71
55590;BME280;41452;42.780;23.116;2023-05-23T09:21:43;94184.09;;;17.86;91.01
55590;BME280;41452;42.780;23.116;2023-05-23T09:24:09;94203.41;;;18.27;93.01
55590;BME280;41452;42.780;23.116;2023-05-23T09:26:35;94209.00;;;18.49;93.12
55590;BME280;41452;42.780;23.116;2023-05-23T09:29:04;94208.84;;;18.65;93.35
55590;BME280;41452;42.780;23.116;2023-05-23T09:31:30;94167.38;;;18.64;92.85
55590;BME280;41452;42.780;23.116;2023-05-23T09:33:57;94201.66;;;18.89;90.21
55590;BME280;41452;42.780;23.116;2023-05-23T09:36:22;94191.66;;;19.00;82.87
55590;BME280;41452;42.780;23.116;2023-05-23T09:38:47;94202.41;;;19.14;81.68
55590;BME280;41452;42.780;23.116;2023-05-23T09:41:13;94199.00;;;19.27;80.17
55590;BME280;41452;42.780;23.116;2023-05-23T09:43:59;94196.13;;;19.24;77.27
55590;BME280;41452;42.780;23.116;2023-05-23T09:46:28;94182.97;;;19.32;76.59
55590;BME280;41452;42.780;23.116;2023-05-23T09:48:55;94168.50;;;19.38;81.22
55590;BME280;41452;42.780;23.116;2023-05-23T09:51:22;94163.84;;;19.30;72.63
55590;BME280;41452;42.780;23.116;2023-05-23T09:53:50;94183.09;;;19.22;74.81
55590;BME280;41452;42.780;23.116;2023-05-23T09:56:17;94184.50;;;19.38;76.64
55590;BME280;41452;42.780;23.116;2023-05-23T09:58:47;94188.00;;;19.15;73.08
55590;BME280;41452;42.780;23.116;2023-05-23T10:01:14;94187.38;;;19.23;73.30
55590;BME280;41452;42.780;23.116;2023-05-23T10:03:45;94170.38;;;19.38;72.02
55590;BME280;41452;42.780;23.116;2023-05-23T10:09:03;94176.00;;;19.69;73.58
55590;BME280;41452;42.780;23.116;2023-05-23T10:14:02;94167.44;;;20.05;71.42
55590;BME280;41452;42.780;23.116;2023-05-23T10:19:41;94182.63;;;19.91;71.37
55590;BME280;41452;42.780;23.116;2023-05-23T10:22:09;94175.44;;;19.72;71.15
55590;BME280;41452;42.780;23.116;2023-05-23T10:24:36;94169.28;;;19.58;71.51
55590;BME280;41452;42.780;23.116;2023-05-23T10:27:02;94168.03;;;19.36;71.44
55590;BME280;41452;42.780;23.116;2023-05-23T10:29:28;94169.63;;;19.51;71.19
55590;BME280;41452;42.780;23.116;2023-05-23T10:31:54;94169.16;;;19.30;71.79
55590;BME280;41452;42.780;23.116;2023-05-23T10:40:12;94158.06;;;19.94;68.40
55590;BME280;41452;42.780;23.116;2023-05-23T10:43:04;94158.38;;;20.06;68.72
55590;BME280;41452;42.780;23.116;2023-05-23T10:45:41;94151.66;;;20.09;66.05
55590;BME280;41452;42.780;23.116;2023-05-23T10:48:32;94143.75;;;19.90;66.68
55590;BME280;41452;42.780;23.116;2023-05-23T10:51:07;94142.78;;;20.13;67.60
55590;BME280;41452;42.780;23.116;2023-05-23T10:53:38;94142.38;;;20.34;69.24
55590;BME280;41452;42.780;23.116;2023-05-23T10:56:23;94151.41;;;20.52;70.73
55590;BME280;41452;42.780;23.116;2023-05-23T10:58:55;94148.13;;;20.69;62.72
55590;BME280;41452;42.780;23.116;2023-05-23T11:01:20;94132.72;;;20.66;65.79
55590;BME280;41452;42.780;23.116;2023-05-23T11:06:40;94133.28;;;20.91;65.38
55590;BME280;41452;42.780;23.116;2023-05-23T11:09:15;94117.22;;;20.54;59.00
55590;BME280;41452;42.780;23.116;2023-05-23T11:14:19;94128.16;;;20.80;60.08
55590;BME280;41452;42.780;23.116;2023-05-23T11:16:45;94126.13;;;21.00;60.91
55590;BME280;41452;42.780;23.116;2023-05-23T11:21:49;94115.06;;;20.93;60.09
55590;BME280;41452;42.780;23.116;2023-05-23T11:24:15;94097.59;;;20.86;59.23
55590;BME280;41452;42.780;23.116;2023-05-23T11:26:51;94106.31;;;20.78;58.24
55590;BME280;41452;42.780;23.116;2023-05-23T11:29:18;94115.78;;;20.98;57.84
55590;BME280;41452;42.780;23.116;2023-05-23T11:31:44;94078.09;;;20.63;59.30
55590;BME280;41452;42.780;23.116;2023-05-23T11:34:10;94106.72;;;21.08;60.61
55590;BME280;41452;42.780;23.116;2023-05-23T11:36:36;94096.56;;;21.33;58.57
55590;BME280;41452;42.780;23.116;2023-05-23T11:39:02;94110.84;;;21.51;56.63
55590;BME280;41452;42.780;23.116;2023-05-23T11:41:29;94094.88;;;21.59;56.87
55590;BME280;41452;42.780;23.116;2023-05-23T11:43:55;94098.25;;;21.51;55.15
55590;BME280;41452;42.780;23.116;2023-05-23T11:46:20;94093.63;;;21.65;57.41
55590;BME280;41452;42.780;23.116;2023-05-23T11:48:47;94096.75;;;21.36;54.70
55590;BME280;41452;42.780;23.116;2023-05-23T11:51:14;94091.13;;;21.60;55.99
55590;BME280;41452;42.780;23.116;2023-05-23T11:53:40;94084.81;;;21.88;57.35
55590;BME280;41452;42.780;23.116;2023-05-23T11:56:06;94079.47;;;21.88;56.39
55590;BME280;41452;42.780;23.116;2023-05-23T11:58:34;94085.66;;;22.06;53.28
55590;BME280;41452;42.780;23.116;2023-05-23T12:01:04;94089.16;;;22.15;55.10
55590;BME280;41452;42.780;23.116;2023-05-23T12:03:34;94091.88;;;22.24;55.39
55590;BME280;41452;42.780;23.116;2023-05-23T12:06:00;94082.84;;;22.42;54.01
55590;BME280;41452;42.780;23.116;2023-05-23T12:08:26;94063.31;;;22.42;53.19
55590;BME280;41452;42.780;23.116;2023-05-23T12:10:56;94087.88;;;22.52;53.61
55590;BME280;41452;42.780;23.116;2023-05-23T12:13:23;94064.25;;;22.37;54.79
55590;BME280;41452;42.780;23.116;2023-05-23T12:15:57;94072.34;;;21.83;55.50
55590;BME280;41452;42.780;23.116;2023-05-23T12:18:27;94073.03;;;21.97;57.86
55590;BME280;41452;42.780;23.116;2023-05-23T12:20:54;94083.63;;;21.71;54.59
55590;BME280;41452;42.780;23.116;2023-05-23T12:23:25;94062.63;;;21.87;53.96
55590;BME280;41452;42.780;23.116;2023-05-23T12:25:51;94065.53;;;21.99;52.79
55590;BME280;41452;42.780;23.116;2023-05-23T12:28:18;94030.72;;;21.91;53.93
55590;BME280;41452;42.780;23.116;2023-05-23T12:30:45;94056.28;;;22.14;55.41
55590;BME280;41452;42.780;23.116;2023-05-23T12:33:10;94054.66;;;22.45;55.15
55590;BME280;41452;42.780;23.116;2023-05-23T12:35:36;94049.31;;;22.45;54.94
55590;BME280;41452;42.780;23.116;2023-05-23T12:38:04;94041.13;;;22.41;52.17
55590;BME280;41452;42.780;23.116;2023-05-23T12:40:31;94033.16;;;22.18;51.62
55590;BME280;41452;42.780;23.116;2023-05-23T12:42:56;94052.69;;;22.19;49.31
55590;BME280;41452;42.780;23.116;2023-05-23T12:58:07;94067.00;;;23.50;53.32
55590;BME280;41452;42.780;23.116;2023-05-23T13:00:33;94071.75;;;23.19;55.13
55590;BME280;41452;42.780;23.116;2023-05-23T13:02:58;94005.47;;;22.14;56.98
55590;BME280;41452;42.780;23.116;2023-05-23T13:05:23;94017.25;;;21.64;61.12
55590;BME280;41452;42.780;23.116;2023-05-23T13:07:49;94035.59;;;21.57;62.49
55590;BME280;41452;42.780;23.116;2023-05-23T13:10:14;94055.09;;;21.58;63.68
55590;BME280;41452;42.780;23.116;2023-05-23T13:12:40;94057.56;;;21.32;66.07
55590;BME280;41452;42.780;23.116;2023-05-23T13:15:06;94048.72;;;21.00;65.02
55590;BME280;41452;42.780;23.116;2023-05-23T13:17:32;94053.50;;;20.66;66.55
55590;BME280;41452;42.780;23.116;2023-05-23T13:19:57;94060.50;;;20.62;66.92
55590;BME280;41452;42.780;23.116;2023-05-23T13:22:23;94054.84;;;20.64;66.18
55590;BME280;41452;42.780;23.116;2023-05-23T13:24:48;94057.13;;;20.57;65.63
55590;BME280;41452;42.780;23.116;2023-05-23T13:27:14;94002.56;;;20.12;67.91
55590;BME280;41452;42.780;23.116;2023-05-23T13:29:39;94038.13;;;20.22;68.80
55590;BME280;41452;42.780;23.116;2023-05-23T13:32:04;94046.72;;;20.32;66.60
55590;BME280;41452;42.780;23.116;2023-05-23T13:34:30;94042.72;;;20.44;68.00
55590;BME280;41452;42.780;23.116;2023-05-23T13:36:55;94037.47;;;20.52;65.73
55590;BME280;41452;42.780;23.116;2023-05-23T13:39:21;94048.81;;;20.58;65.59
55590;BME280;41452;42.780;23.116;2023-05-23T13:41:48;94054.28;;;20.67;67.06
55590;BME280;41452;42.780;23.116;2023-05-23T13:44:13;94045.56;;;20.75;64.41
55590;BME280;41452;42.780;23.116;2023-05-23T13:46:38;94047.81;;;21.04;67.33
55590;BME280;41452;42.780;23.116;2023-05-23T13:49:04;94049.19;;;21.24;66.30
55590;BME280;41452;42.780;23.116;2023-05-23T13:51:29;94058.75;;;21.39;63.59
55590;BME280;41452;42.780;23.116;2023-05-23T13:53:56;94041.13;;;21.38;61.59
55590;BME280;41452;42.780;23.116;2023-05-23T13:56:22;94034.47;;;21.27;60.54
55590;BME280;41452;42.780;23.116;2023-05-23T13:58:48;94041.72;;;21.35;62.38
55590;BME280;41452;42.780;23.116;2023-05-23T14:01:13;94036.38;;;21.35;60.46
55590;BME280;41452;42.780;23.116;2023-05-23T14:03:39;94054.31;;;21.57;62.02
55590;BME280;41452;42.780;23.116;2023-05-23T14:06:04;94050.53;;;21.58;61.60
55590;BME280;41452;42.780;23.116;2023-05-23T14:08:30;94018.31;;;21.32;59.45
55590;BME280;41452;42.780;23.116;2023-05-23T14:10:55;94022.50;;;21.47;59.42
55590;BME280;41452;42.780;23.116;2023-05-23T14:13:21;94039.41;;;21.65;63.33
55590;BME280;41452;42.780;23.116;2023-05-23T14:15:47;94003.13;;;21.41;61.56
55590;BME280;41452;42.780;23.116;2023-05-23T14:18:13;94020.22;;;21.63;60.32
55590;BME280;41452;42.780;23.116;2023-05-23T14:20:38;94015.50;;;21.60;60.17